sensor_id;sensor_type;location;lat;lon;timestamp;P1;durP1;ratioP1;P2;durP2;ratioP2
33644;SDS011;19986;48.190;16.366;2022-09-02T00:00:52;27.58;;;26.27;;
33644;SDS011;19986;48.190;16.366;2022-09-02T00:03:29;28.65;;;27.25;;
33644;SDS011;19986;48.190;16.366;2022-09-02T00:05:58;29.45;;;28.00;;
33644;SDS011;19986;48.190;16.366;2022-09-02T00:08:26;27.40;;;26.10;;
33644;SDS011;19986;48.190;16.366;2022-09-02T00:10:52;29.67;;;28.38;;
33644;SDS011;19986;48.190;16.366;2022-09-02T00:13:19;28.08;;;26.77;;
33644;SDS011;19986;48.190;16.366;2022-09-02T00:15:46;28.45;;;27.00;;
33644;SDS011;19986;48.190;16.366;2022-09-02T00:18:13;29.27;;;27.55;;
33644;SDS011;19986;48.190;16.366;2022-09-02T00:20:41;28.45;;;27.15;;
33644;SDS011;19986;48.190;16.366;2022-09-02T00:23:08;28.33;;;26.92;;
33644;SDS011;19986;48.190;16.366;2022-09-02T00:25:35;29.17;;;27.70;;
33644;SDS011;19986;48.190;16.366;2022-09-02T00:28:02;29.20;;;27.65;;
33644;SDS011;19986;48.190;16.366;2022-09-02T00:30:28;29.23;;;27.83;;
33644;SDS011;19986;48.190;16.366;2022-09-02T00:32:54;29.80;;;28.25;;
33644;SDS011;19986;48.190;16.366;2022-09-02T00:35:20;30.20;;;28.67;;
33644;SDS011;19986;48.190;16.366;2022-09-02T00:37:46;30.75;;;29.25;;
33644;SDS011;19986;48.190;16.366;2022-09-02T00:40:12;28.27;;;26.80;;
33644;SDS011;19986;48.190;16.366;2022-09-02T00:42:39;26.85;;;25.55;;
33644;SDS011;19986;48.190;16.366;2022-09-02T00:45:05;30.55;;;28.73;;
33644;SDS011;19986;48.190;16.366;2022-09-02T00:47:33;28.63;;;27.33;;
33644;SDS011;19986;48.190;16.366;2022-09-02T00:50:02;29.60;;;27.80;;
33644;SDS011;19986;48.190;16.366;2022-09-02T00:52:32;29.80;;;28.20;;
33644;SDS011;19986;48.190;16.366;2022-09-02T00:55:04;28.63;;;27.33;;
33644;SDS011;19986;48.190;16.366;2022-09-02T00:57:39;28.83;;;27.23;;
33644;SDS011;19986;48.190;16.366;2022-09-02T01:02:39;30.00;;;28.50;;
33644;SDS011;19986;48.190;16.366;2022-09-02T01:05:07;28.58;;;27.08;;
33644;SDS011;19986;48.190;16.366;2022-09-02T01:07:35;29.38;;;27.98;;
33644;SDS011;19986;48.190;16.366;2022-09-02T01:10:06;28.55;;;27.23;;
33644;SDS011;19986;48.190;16.366;2022-09-02T01:12:43;29.58;;;28.08;;
33644;SDS011;19986;48.190;16.366;2022-09-02T01:15:10;28.20;;;26.70;;
33644;SDS011;19986;48.190;16.366;2022-09-02T01:17:38;28.25;;;26.95;;
33644;SDS011;19986;48.190;16.366;2022-09-02T01:20:11;29.25;;;27.85;;
33644;SDS011;19986;48.190;16.366;2022-09-02T01:22:40;29.10;;;27.60;;
33644;SDS011;19986;48.190;16.366;2022-09-02T01:25:08;28.00;;;26.60;;
33644;SDS011;19986;48.190;16.366;2022-09-02T01:27:38;28.33;;;26.65;;
33644;SDS011;19986;48.190;16.366;2022-09-02T01:30:05;28.30;;;26.80;;
33644;SDS011;19986;48.190;16.366;2022-09-02T01:32:33;28.60;;;27.10;;
33644;SDS011;19986;48.190;16.366;2022-09-02T01:34:59;29.50;;;28.05;;
33644;SDS011;19986;48.190;16.366;2022-09-02T01:37:25;30.17;;;28.70;;
33644;SDS011;19986;48.190;16.366;2022-09-02T01:39:51;28.65;;;27.17;;
33644;SDS011;19986;48.190;16.366;2022-09-02T01:42:18;30.38;;;28.90;;
33644;SDS011;19986;48.190;16.366;2022-09-02T01:44:45;29.85;;;28.35;;
33644;SDS011;19986;48.190;16.366;2022-09-02T01:47:15;27.38;;;25.83;;
33644;SDS011;19986;48.190;16.366;2022-09-02T01:49:47;30.00;;;28.50;;
33644;SDS011;19986;48.190;16.366;2022-09-02T01:52:13;30.42;;;29.02;;
33644;SDS011;19986;48.190;16.366;2022-09-02T01:54:39;29.65;;;28.25;;
33644;SDS011;19986;48.190;16.366;2022-09-02T01:57:07;27.92;;;26.58;;
33644;SDS011;19986;48.190;16.366;2022-09-02T01:59:33;28.52;;;27.13;;
33644;SDS011;19986;48.190;16.366;2022-09-02T02:02:00;28.85;;;27.35;;
33644;SDS011;19986;48.190;16.366;2022-09-02T02:04:27;29.13;;;27.83;;
33644;SDS011;19986;48.190;16.366;2022-09-02T02:06:53;28.40;;;27.00;;
33644;SDS011;19986;48.190;16.366;2022-09-02T02:09:20;29.67;;;28.25;;
33644;SDS011;19986;48.190;16.366;2022-09-02T02:11:47;29.48;;;27.95;;
33644;SDS011;19986;48.190;16.366;2022-09-02T02:14:13;27.58;;;26.25;;
33644;SDS011;19986;48.190;16.366;2022-09-02T02:16:41;29.30;;;27.80;;
33644;SDS011;19986;48.190;16.366;2022-09-02T02:19:07;28.42;;;27.02;;
33644;SDS011;19986;48.190;16.366;2022-09-02T02:21:34;30.02;;;28.50;;
33644;SDS011;19986;48.190;16.366;2022-09-02T02:24:00;29.60;;;28.20;;
33644;SDS011;19986;48.190;16.366;2022-09-02T02:26:33;29.05;;;27.52;;
33644;SDS011;19986;48.190;16.366;2022-09-02T02:29:00;28.88;;;27.48;;
33644;SDS011;19986;48.190;16.366;2022-09-02T02:31:27;27.67;;;26.17;;
33644;SDS011;19986;48.190;16.366;2022-09-02T02:33:53;29.65;;;28.02;;
33644;SDS011;19986;48.190;16.366;2022-09-02T02:36:20;28.55;;;27.15;;
33644;SDS011;19986;48.190;16.366;2022-09-02T02:38:51;31.23;;;29.63;;
33644;SDS011;19986;48.190;16.366;2022-09-02T02:41:17;29.40;;;27.92;;
33644;SDS011;19986;48.190;16.366;2022-09-02T02:43:44;30.27;;;28.77;;
33644;SDS011;19986;48.190;16.366;2022-09-02T02:46:12;30.67;;;29.10;;
33644;SDS011;19986;48.190;16.366;2022-09-02T02:48:39;29.38;;;27.92;;
33644;SDS011;19986;48.190;16.366;2022-09-02T02:51:07;29.65;;;28.25;;
33644;SDS011;19986;48.190;16.366;2022-09-02T02:53:34;29.80;;;28.20;;
33644;SDS011;19986;48.190;16.366;2022-09-02T02:56:01;31.13;;;29.50;;
33644;SDS011;19986;48.190;16.366;2022-09-02T02:58:28;29.92;;;28.42;;
33644;SDS011;19986;48.190;16.366;2022-09-02T03:00:55;29.67;;;28.05;;
33644;SDS011;19986;48.190;16.366;2022-09-02T03:03:21;29.58;;;28.08;;
33644;SDS011;19986;48.190;16.366;2022-09-02T03:05:48;28.63;;;27.15;;
33644;SDS011;19986;48.190;16.366;2022-09-02T03:08:15;30.42;;;28.73;;
33644;SDS011;19986;48.190;16.366;2022-09-02T03:10:45;29.90;;;28.38;;
33644;SDS011;19986;48.190;16.366;2022-09-02T03:13:14;29.50;;;28.10;;
33644;SDS011;19986;48.190;16.366;2022-09-02T03:15:40;28.08;;;26.63;;
33644;SDS011;19986;48.190;16.366;2022-09-02T03:18:06;28.92;;;27.35;;
33644;SDS011;19986;48.190;16.366;2022-09-02T03:20:33;29.20;;;27.70;;
33644;SDS011;19986;48.190;16.366;2022-09-02T03:22:59;28.58;;;27.17;;
33644;SDS011;19986;48.190;16.366;2022-09-02T03:25:26;28.98;;;27.58;;
33644;SDS011;19986;48.190;16.366;2022-09-02T03:27:53;30.15;;;28.65;;
33644;SDS011;19986;48.190;16.366;2022-09-02T03:30:21;27.73;;;26.42;;
33644;SDS011;19986;48.190;16.366;2022-09-02T03:32:50;28.88;;;27.40;;
33644;SDS011;19986;48.190;16.366;2022-09-02T03:35:20;29.90;;;28.50;;
33644;SDS011;19986;48.190;16.366;2022-09-02T03:37:47;28.95;;;27.50;;
33644;SDS011;19986;48.190;16.366;2022-09-02T03:40:16;28.75;;;27.42;;
33644;SDS011;19986;48.190;16.366;2022-09-02T03:42:48;28.58;;;27.00;;
33644;SDS011;19986;48.190;16.366;2022-09-02T03:45:14;30.08;;;28.38;;
33644;SDS011;19986;48.190;16.366;2022-09-02T03:47:41;30.08;;;28.35;;
33644;SDS011;19986;48.190;16.366;2022-09-02T03:50:18;28.63;;;27.17;;
33644;SDS011;19986;48.190;16.366;2022-09-02T03:52:47;29.25;;;27.70;;
33644;SDS011;19986;48.190;16.366;2022-09-02T03:55:13;28.60;;;27.17;;
33644;SDS011;19986;48.190;16.366;2022-09-02T03:57:40;28.80;;;27.50;;
33644;SDS011;19986;48.190;16.366;2022-09-02T04:00:07;31.85;;;30.33;;
33644;SDS011;19986;48.190;16.366;2022-09-02T04:02:33;28.98;;;27.50;;
33644;SDS011;19986;48.190;16.366;2022-09-02T04:05:00;29.02;;;27.52;;
33644;SDS011;19986;48.190;16.366;2022-09-02T04:07:26;29.65;;;28.25;;
33644;SDS011;19986;48.190;16.366;2022-09-02T04:09:52;29.45;;;28.00;;
33644;SDS011;19986;48.190;16.366;2022-09-02T04:12:20;29.33;;;27.73;;
33644;SDS011;19986;48.190;16.366;2022-09-02T04:14:47;28.88;;;27.08;;
33644;SDS011;19986;48.190;16.366;2022-09-02T04:17:13;28.90;;;27.30;;
33644;SDS011;19986;48.190;16.366;2022-09-02T04:19:38;28.48;;;26.92;;
33644;SDS011;19986;48.190;16.366;2022-09-02T04:22:07;30.42;;;28.83;;
33644;SDS011;19986;48.190;16.366;2022-09-02T04:24:33;28.98;;;27.38;;
33644;SDS011;19986;48.190;16.366;2022-09-02T04:26:59;29.08;;;27.55;;
33644;SDS011;19986;48.190;16.366;2022-09-02T04:29:26;27.80;;;26.50;;
33644;SDS011;19986;48.190;16.366;2022-09-02T04:31:52;28.27;;;26.90;;
33644;SDS011;19986;48.190;16.366;2022-09-02T04:34:18;30.77;;;29.27;;
33644;SDS011;19986;48.190;16.366;2022-09-02T04:36:44;30.85;;;29.13;;
33644;SDS011;19986;48.190;16.366;2022-09-02T04:39:25;30.25;;;28.73;;
33644;SDS011;19986;48.190;16.366;2022-09-02T04:41:51;29.90;;;28.30;;
33644;SDS011;19986;48.190;16.366;2022-09-02T04:44:18;30.25;;;28.60;;
33644;SDS011;19986;48.190;16.366;2022-09-02T04:46:44;30.77;;;29.27;;
33644;SDS011;19986;48.190;16.366;2022-09-02T04:49:10;28.63;;;27.10;;
33644;SDS011;19986;48.190;16.366;2022-09-02T04:51:37;30.02;;;28.55;;
33644;SDS011;19986;48.190;16.366;2022-09-02T04:54:02;31.08;;;29.40;;
33644;SDS011;19986;48.190;16.366;2022-09-02T04:56:29;30.83;;;29.13;;
33644;SDS011;19986;48.190;16.366;2022-09-02T04:58:56;29.42;;;27.85;;
33644;SDS011;19986;48.190;16.366;2022-09-02T05:01:24;31.75;;;30.13;;
33644;SDS011;19986;48.190;16.366;2022-09-02T05:03:52;29.08;;;27.02;;
33644;SDS011;19986;48.190;16.366;2022-09-02T05:06:19;28.85;;;27.40;;
33644;SDS011;19986;48.190;16.366;2022-09-02T05:08:47;29.10;;;27.38;;
33644;SDS011;19986;48.190;16.366;2022-09-02T05:11:15;28.90;;;27.30;;
33644;SDS011;19986;48.190;16.366;2022-09-02T05:13:43;29.65;;;28.15;;
33644;SDS011;19986;48.190;16.366;2022-09-02T05:16:14;30.13;;;28.40;;
33644;SDS011;19986;48.190;16.366;2022-09-02T05:18:41;30.08;;;28.58;;
33644;SDS011;19986;48.190;16.366;2022-09-02T05:21:07;29.80;;;28.20;;
33644;SDS011;19986;48.190;16.366;2022-09-02T05:23:33;28.80;;;27.38;;
33644;SDS011;19986;48.190;16.366;2022-09-02T05:26:02;28.20;;;26.60;;
33644;SDS011;19986;48.190;16.366;2022-09-02T05:28:32;29.25;;;27.75;;
33644;SDS011;19986;48.190;16.366;2022-09-02T05:31:02;28.88;;;27.33;;
33644;SDS011;19986;48.190;16.366;2022-09-02T05:33:30;29.58;;;27.80;;
33644;SDS011;19986;48.190;16.366;2022-09-02T05:36:05;30.83;;;29.27;;
33644;SDS011;19986;48.190;16.366;2022-09-02T05:38:32;29.13;;;27.10;;
33644;SDS011;19986;48.190;16.366;2022-09-02T05:41:03;29.20;;;27.42;;
33644;SDS011;19986;48.190;16.366;2022-09-02T05:43:35;30.90;;;29.50;;
33644;SDS011;19986;48.190;16.366;2022-09-02T05:46:03;29.80;;;28.25;;
33644;SDS011;19986;48.190;16.366;2022-09-02T05:48:32;29.23;;;27.63;;
33644;SDS011;19986;48.190;16.366;2022-09-02T05:51:18;29.55;;;28.05;;
33644;SDS011;19986;48.190;16.366;2022-09-02T05:53:44;28.20;;;26.80;;
33644;SDS011;19986;48.190;16.366;2022-09-02T05:56:10;30.95;;;29.45;;
33644;SDS011;19986;48.190;16.366;2022-09-02T05:58:36;30.15;;;28.50;;
33644;SDS011;19986;48.190;16.366;2022-09-02T06:01:09;30.30;;;28.70;;
33644;SDS011;19986;48.190;16.366;2022-09-02T06:03:36;31.58;;;29.48;;
33644;SDS011;19986;48.190;16.366;2022-09-02T06:06:02;28.77;;;27.33;;
33644;SDS011;19986;48.190;16.366;2022-09-02T06:08:29;30.65;;;29.05;;
33644;SDS011;19986;48.190;16.366;2022-09-02T06:10:55;29.27;;;27.73;;
33644;SDS011;19986;48.190;16.366;2022-09-02T06:13:21;29.33;;;27.80;;
33644;SDS011;19986;48.190;16.366;2022-09-02T06:15:48;29.52;;;27.92;;
33644;SDS011;19986;48.190;16.366;2022-09-02T06:18:14;31.92;;;29.58;;
33644;SDS011;19986;48.190;16.366;2022-09-02T06:20:42;30.95;;;29.05;;
33644;SDS011;19986;48.190;16.366;2022-09-02T06:23:10;29.27;;;27.80;;
33644;SDS011;19986;48.190;16.366;2022-09-02T06:25:38;29.58;;;28.02;;
33644;SDS011;19986;48.190;16.366;2022-09-02T06:28:05;28.52;;;26.63;;
33644;SDS011;19986;48.190;16.366;2022-09-02T06:30:32;29.02;;;27.58;;
33644;SDS011;19986;48.190;16.366;2022-09-02T06:32:58;29.95;;;28.38;;
33644;SDS011;19986;48.190;16.366;2022-09-02T06:35:27;30.00;;;28.23;;
33644;SDS011;19986;48.190;16.366;2022-09-02T06:37:56;28.55;;;27.05;;
33644;SDS011;19986;48.190;16.366;2022-09-02T06:40:22;29.75;;;27.95;;
33644;SDS011;19986;48.190;16.366;2022-09-02T06:42:48;29.95;;;28.17;;
33644;SDS011;19986;48.190;16.366;2022-09-02T06:45:14;29.67;;;28.08;;
33644;SDS011;19986;48.190;16.366;2022-09-02T06:47:41;30.35;;;28.70;;
33644;SDS011;19986;48.190;16.366;2022-09-02T06:50:07;29.40;;;27.90;;
33644;SDS011;19986;48.190;16.366;2022-09-02T06:52:33;27.73;;;26.05;;
33644;SDS011;19986;48.190;16.366;2022-09-02T06:54:59;29.77;;;28.17;;
33644;SDS011;19986;48.190;16.366;2022-09-02T06:57:26;29.13;;;27.55;;
33644;SDS011;19986;48.190;16.366;2022-09-02T06:59:52;30.83;;;29.23;;
33644;SDS011;19986;48.190;16.366;2022-09-02T07:02:18;28.15;;;26.50;;
33644;SDS011;19986;48.190;16.366;2022-09-02T07:04:44;27.08;;;25.58;;
33644;SDS011;19986;48.190;16.366;2022-09-02T07:07:28;28.75;;;27.02;;
33644;SDS011;19986;48.190;16.366;2022-09-02T07:09:54;28.23;;;26.73;;
33644;SDS011;19986;48.190;16.366;2022-09-02T07:12:20;28.50;;;27.10;;
33644;SDS011;19986;48.190;16.366;2022-09-02T07:14:46;30.70;;;28.85;;
33644;SDS011;19986;48.190;16.366;2022-09-02T07:17:13;29.05;;;27.45;;
33644;SDS011;19986;48.190;16.366;2022-09-02T07:19:46;31.00;;;29.05;;
33644;SDS011;19986;48.190;16.366;2022-09-02T07:22:13;29.05;;;27.45;;
33644;SDS011;19986;48.190;16.366;2022-09-02T07:24:39;31.13;;;29.05;;
33644;SDS011;19986;48.190;16.366;2022-09-02T07:27:05;28.63;;;27.05;;
33644;SDS011;19986;48.190;16.366;2022-09-02T07:29:32;27.40;;;25.90;;
33644;SDS011;19986;48.190;16.366;2022-09-02T07:31:58;30.25;;;28.27;;
33644;SDS011;19986;48.190;16.366;2022-09-02T07:34:24;27.55;;;25.98;;
33644;SDS011;19986;48.190;16.366;2022-09-02T07:36:50;26.70;;;24.80;;
33644;SDS011;19986;48.190;16.366;2022-09-02T07:39:17;28.88;;;27.25;;
33644;SDS011;19986;48.190;16.366;2022-09-02T07:41:44;29.10;;;27.58;;
33644;SDS011;19986;48.190;16.366;2022-09-02T07:44:12;29.58;;;28.08;;
33644;SDS011;19986;48.190;16.366;2022-09-02T07:46:38;26.58;;;25.17;;
33644;SDS011;19986;48.190;16.366;2022-09-02T07:49:05;29.50;;;27.80;;
33644;SDS011;19986;48.190;16.366;2022-09-02T07:51:34;29.15;;;27.25;;
33644;SDS011;19986;48.190;16.366;2022-09-02T07:54:02;28.30;;;26.55;;
33644;SDS011;19986;48.190;16.366;2022-09-02T07:56:30;29.10;;;27.70;;
33644;SDS011;19986;48.190;16.366;2022-09-02T07:58:56;29.67;;;28.02;;
33644;SDS011;19986;48.190;16.366;2022-09-02T08:01:22;27.10;;;25.65;;
33644;SDS011;19986;48.190;16.366;2022-09-02T08:03:48;29.17;;;27.60;;
33644;SDS011;19986;48.190;16.366;2022-09-02T08:06:14;29.30;;;27.55;;
33644;SDS011;19986;48.190;16.366;2022-09-02T08:08:41;29.15;;;27.45;;
33644;SDS011;19986;48.190;16.366;2022-09-02T08:11:08;27.15;;;25.75;;
33644;SDS011;19986;48.190;16.366;2022-09-02T08:13:37;27.95;;;26.20;;
33644;SDS011;19986;48.190;16.366;2022-09-02T08:16:04;29.27;;;27.55;;
33644;SDS011;19986;48.190;16.366;2022-09-02T08:18:30;28.48;;;26.88;;
33644;SDS011;19986;48.190;16.366;2022-09-02T08:20:57;29.90;;;28.10;;
33644;SDS011;19986;48.190;16.366;2022-09-02T08:23:23;28.88;;;27.23;;
33644;SDS011;19986;48.190;16.366;2022-09-02T08:25:50;27.90;;;26.60;;
33644;SDS011;19986;48.190;16.366;2022-09-02T08:28:16;27.90;;;26.35;;
33644;SDS011;19986;48.190;16.366;2022-09-02T08:30:42;27.38;;;25.42;;
33644;SDS011;19986;48.190;16.366;2022-09-02T08:33:07;28.23;;;26.65;;
33644;SDS011;19986;48.190;16.366;2022-09-02T08:35:33;28.98;;;27.58;;
33644;SDS011;19986;48.190;16.366;2022-09-02T08:37:59;27.98;;;26.58;;
33644;SDS011;19986;48.190;16.366;2022-09-02T08:40:30;28.02;;;26.48;;
33644;SDS011;19986;48.190;16.366;2022-09-02T08:43:08;26.58;;;25.27;;
33644;SDS011;19986;48.190;16.366;2022-09-02T08:45:49;28.02;;;26.40;;
33644;SDS011;19986;48.190;16.366;2022-09-02T08:48:19;28.15;;;26.45;;
33644;SDS011;19986;48.190;16.366;2022-09-02T08:50:53;28.85;;;26.95;;
33644;SDS011;19986;48.190;16.366;2022-09-02T08:53:29;28.08;;;26.65;;
33644;SDS011;19986;48.190;16.366;2022-09-02T08:55:59;28.30;;;26.60;;
33644;SDS011;19986;48.190;16.366;2022-09-02T08:58:28;29.88;;;27.65;;
33644;SDS011;19986;48.190;16.366;2022-09-02T09:03:37;27.25;;;25.70;;
33644;SDS011;19986;48.190;16.366;2022-09-02T09:06:15;27.73;;;26.15;;
33644;SDS011;19986;48.190;16.366;2022-09-02T09:08:55;26.77;;;25.38;;
33644;SDS011;19986;48.190;16.366;2022-09-02T09:14:20;25.98;;;24.45;;
33644;SDS011;19986;48.190;16.366;2022-09-02T09:17:04;27.48;;;26.15;;
33644;SDS011;19986;48.190;16.366;2022-09-02T09:19:49;26.92;;;25.52;;
33644;SDS011;19986;48.190;16.366;2022-09-02T09:22:18;27.75;;;26.25;;
33644;SDS011;19986;48.190;16.366;2022-09-02T09:24:56;26.77;;;25.23;;
33644;SDS011;19986;48.190;16.366;2022-09-02T09:27:22;27.30;;;25.58;;
33644;SDS011;19986;48.190;16.366;2022-09-02T09:29:49;26.45;;;24.40;;
33644;SDS011;19986;48.190;16.366;2022-09-02T09:32:24;27.48;;;25.92;;
33644;SDS011;19986;48.190;16.366;2022-09-02T09:34:58;25.90;;;24.42;;
33644;SDS011;19986;48.190;16.366;2022-09-02T09:37:33;26.83;;;25.33;;
33644;SDS011;19986;48.190;16.366;2022-09-02T09:45:36;26.30;;;24.70;;
33644;SDS011;19986;48.190;16.366;2022-09-02T09:48:19;26.40;;;25.05;;
33644;SDS011;19986;48.190;16.366;2022-09-02T09:55:51;27.50;;;26.02;;
33644;SDS011;19986;48.190;16.366;2022-09-02T09:58:19;27.20;;;25.60;;
33644;SDS011;19986;48.190;16.366;2022-09-02T10:00:47;26.48;;;24.98;;
33644;SDS011;19986;48.190;16.366;2022-09-02T10:03:20;26.73;;;25.13;;
33644;SDS011;19986;48.190;16.366;2022-09-02T10:05:57;26.73;;;25.33;;
33644;SDS011;19986;48.190;16.366;2022-09-02T10:08:51;28.02;;;26.40;;
33644;SDS011;19986;48.190;16.366;2022-09-02T10:11:24;25.63;;;24.23;;
33644;SDS011;19986;48.190;16.366;2022-09-02T10:14:04;27.42;;;25.92;;
33644;SDS011;19986;48.190;16.366;2022-09-02T10:22:41;26.48;;;25.10;;
33644;SDS011;19986;48.190;16.366;2022-09-02T10:30:25;25.85;;;24.48;;
33644;SDS011;19986;48.190;16.366;2022-09-02T10:38:26;26.30;;;24.98;;
33644;SDS011;19986;48.190;16.366;2022-09-02T10:57:28;22.88;;;21.55;;
33644;SDS011;19986;48.190;16.366;2022-09-02T11:02:36;22.20;;;21.17;;
33644;SDS011;19986;48.190;16.366;2022-09-02T11:05:17;22.60;;;21.25;;
33644;SDS011;19986;48.190;16.366;2022-09-02T11:12:49;23.70;;;22.48;;
33644;SDS011;19986;48.190;16.366;2022-09-02T11:18:07;23.67;;;22.50;;
33644;SDS011;19986;48.190;16.366;2022-09-02T11:20:56;23.35;;;21.80;;
33644;SDS011;19986;48.190;16.366;2022-09-02T11:23:48;23.00;;;21.40;;
33644;SDS011;19986;48.190;16.366;2022-09-02T11:31:43;24.40;;;23.10;;
33644;SDS011;19986;48.190;16.366;2022-09-02T11:37:01;22.48;;;21.35;;
33644;SDS011;19986;48.190;16.366;2022-09-02T11:45:14;24.05;;;22.75;;
33644;SDS011;19986;48.190;16.366;2022-09-02T11:53:37;24.60;;;23.50;;
33644;SDS011;19986;48.190;16.366;2022-09-02T11:56:08;23.35;;;22.00;;
33644;SDS011;19986;48.190;16.366;2022-09-02T11:58:38;23.73;;;22.40;;
33644;SDS011;19986;48.190;16.366;2022-09-02T12:04:32;23.85;;;22.55;;
33644;SDS011;19986;48.190;16.366;2022-09-02T12:06:35;23.77;;;22.27;;
33644;SDS011;19986;48.190;16.366;2022-09-02T12:09:06;24.35;;;22.90;;
33644;SDS011;19986;48.190;16.366;2022-09-02T12:11:44;23.77;;;22.38;;
33644;SDS011;19986;48.190;16.366;2022-09-02T12:17:00;24.60;;;23.35;;
33644;SDS011;19986;48.190;16.366;2022-09-02T12:19:38;23.73;;;22.58;;
33644;SDS011;19986;48.190;16.366;2022-09-02T12:24:50;23.75;;;22.48;;
33644;SDS011;19986;48.190;16.366;2022-09-02T12:27:26;23.10;;;21.67;;
33644;SDS011;19986;48.190;16.366;2022-09-02T12:29:58;23.27;;;22.17;;
33644;SDS011;19986;48.190;16.366;2022-09-02T12:33:00;23.42;;;22.15;;
33644;SDS011;19986;48.190;16.366;2022-09-02T12:35:30;23.52;;;22.35;;
33644;SDS011;19986;48.190;16.366;2022-09-02T12:40:40;24.10;;;22.80;;
33644;SDS011;19986;48.190;16.366;2022-09-02T12:43:23;24.60;;;23.17;;
33644;SDS011;19986;48.190;16.366;2022-09-02T12:45:56;23.58;;;22.25;;
33644;SDS011;19986;48.190;16.366;2022-09-02T12:48:37;26.05;;;24.67;;
33644;SDS011;19986;48.190;16.366;2022-09-02T12:51:07;24.13;;;22.85;;
33644;SDS011;19986;48.190;16.366;2022-09-02T12:53:37;22.48;;;21.27;;
33644;SDS011;19986;48.190;16.366;2022-09-02T12:58:47;24.25;;;22.95;;
33644;SDS011;19986;48.190;16.366;2022-09-02T13:04:29;23.83;;;22.63;;
33644;SDS011;19986;48.190;16.366;2022-09-02T13:27:01;25.27;;;24.05;;
33644;SDS011;19986;48.190;16.366;2022-09-02T13:30:03;25.95;;;24.65;;
33644;SDS011;19986;48.190;16.366;2022-09-02T13:32:58;26.38;;;24.90;;
33644;SDS011;19986;48.190;16.366;2022-09-02T13:35:30;26.73;;;25.00;;
33644;SDS011;19986;48.190;16.366;2022-09-02T13:37:58;26.35;;;25.00;;
33644;SDS011;19986;48.190;16.366;2022-09-02T13:40:26;25.85;;;24.63;;
33644;SDS011;19986;48.190;16.366;2022-09-02T13:42:55;25.30;;;24.00;;
33644;SDS011;19986;48.190;16.366;2022-09-02T13:45:27;25.08;;;23.77;;
33644;SDS011;19986;48.190;16.366;2022-09-02T13:47:57;26.65;;;25.15;;
33644;SDS011;19986;48.190;16.366;2022-09-02T13:50:27;24.70;;;23.60;;
33644;SDS011;19986;48.190;16.366;2022-09-02T13:53:03;26.38;;;24.75;;
33644;SDS011;19986;48.190;16.366;2022-09-02T13:55:31;24.83;;;23.63;;
33644;SDS011;19986;48.190;16.366;2022-09-02T13:58:00;26.30;;;24.90;;
33644;SDS011;19986;48.190;16.366;2022-09-02T14:00:46;25.95;;;24.75;;
33644;SDS011;19986;48.190;16.366;2022-09-02T14:03:20;24.52;;;22.80;;
33644;SDS011;19986;48.190;16.366;2022-09-02T14:05:47;23.80;;;22.27;;
33644;SDS011;19986;48.190;16.366;2022-09-02T14:08:18;25.70;;;24.25;;
33644;SDS011;19986;48.190;16.366;2022-09-02T14:10:47;30.63;;;28.50;;
33644;SDS011;19986;48.190;16.366;2022-09-02T14:13:15;25.05;;;23.67;;
33644;SDS011;19986;48.190;16.366;2022-09-02T14:15:42;25.25;;;23.80;;
33644;SDS011;19986;48.190;16.366;2022-09-02T14:18:14;25.40;;;24.02;;
33644;SDS011;19986;48.190;16.366;2022-09-02T14:23:17;25.48;;;24.13;;
33644;SDS011;19986;48.190;16.366;2022-09-02T14:25:53;24.35;;;22.98;;
33644;SDS011;19986;48.190;16.366;2022-09-02T14:28:26;25.63;;;24.27;;
33644;SDS011;19986;48.190;16.366;2022-09-02T14:31:04;26.00;;;24.52;;
33644;SDS011;19986;48.190;16.366;2022-09-02T14:33:46;26.90;;;25.40;;
33644;SDS011;19986;48.190;16.366;2022-09-02T14:43:46;27.55;;;25.60;;
33644;SDS011;19986;48.190;16.366;2022-09-02T14:46:18;25.30;;;24.10;;
33644;SDS011;19986;48.190;16.366;2022-09-02T14:51:45;26.58;;;25.25;;
33644;SDS011;19986;48.190;16.366;2022-09-02T14:54:32;26.27;;;24.95;;
33644;SDS011;19986;48.190;16.366;2022-09-02T14:57:04;26.63;;;25.13;;
33644;SDS011;19986;48.190;16.366;2022-09-02T14:59:43;24.88;;;23.63;;
33644;SDS011;19986;48.190;16.366;2022-09-02T15:02:18;25.30;;;23.90;;
33644;SDS011;19986;48.190;16.366;2022-09-02T15:05:06;25.42;;;24.00;;
33644;SDS011;19986;48.190;16.366;2022-09-02T15:07:35;26.25;;;24.73;;
33644;SDS011;19986;48.190;16.366;2022-09-02T15:10:00;26.33;;;24.90;;
33644;SDS011;19986;48.190;16.366;2022-09-02T15:12:29;25.30;;;24.10;;
33644;SDS011;19986;48.190;16.366;2022-09-02T15:14:57;25.27;;;24.00;;
33644;SDS011;19986;48.190;16.366;2022-09-02T15:17:24;25.52;;;23.92;;
33644;SDS011;19986;48.190;16.366;2022-09-02T15:19:50;25.73;;;24.52;;
33644;SDS011;19986;48.190;16.366;2022-09-02T15:22:16;25.42;;;24.13;;
33644;SDS011;19986;48.190;16.366;2022-09-02T15:24:44;25.17;;;23.83;;
33644;SDS011;19986;48.190;16.366;2022-09-02T15:27:13;27.75;;;26.25;;
33644;SDS011;19986;48.190;16.366;2022-09-02T15:29:39;27.65;;;26.02;;
33644;SDS011;19986;48.190;16.366;2022-09-02T15:32:06;25.88;;;24.35;;
33644;SDS011;19986;48.190;16.366;2022-09-02T15:34:32;26.10;;;24.60;;
33644;SDS011;19986;48.190;16.366;2022-09-02T15:36:59;27.35;;;25.70;;
33644;SDS011;19986;48.190;16.366;2022-09-02T15:39:27;26.38;;;24.75;;
33644;SDS011;19986;48.190;16.366;2022-09-02T15:41:54;26.33;;;24.90;;
33644;SDS011;19986;48.190;16.366;2022-09-02T15:44:21;25.52;;;24.05;;
33644;SDS011;19986;48.190;16.366;2022-09-02T15:46:53;25.45;;;24.08;;
33644;SDS011;19986;48.190;16.366;2022-09-02T15:49:20;25.90;;;24.30;;
33644;SDS011;19986;48.190;16.366;2022-09-02T15:51:48;26.42;;;24.73;;
33644;SDS011;19986;48.190;16.366;2022-09-02T15:54:15;26.20;;;24.83;;
33644;SDS011;19986;48.190;16.366;2022-09-02T15:56:43;25.70;;;24.35;;
33644;SDS011;19986;48.190;16.366;2022-09-02T15:59:12;28.73;;;27.05;;
33644;SDS011;19986;48.190;16.366;2022-09-02T16:01:43;25.73;;;24.40;;
33644;SDS011;19986;48.190;16.366;2022-09-02T16:04:11;25.58;;;24.23;;
33644;SDS011;19986;48.190;16.366;2022-09-02T16:06:38;25.48;;;24.15;;
33644;SDS011;19986;48.190;16.366;2022-09-02T16:09:07;26.17;;;24.85;;
33644;SDS011;19986;48.190;16.366;2022-09-02T16:11:37;24.80;;;23.50;;
33644;SDS011;19986;48.190;16.366;2022-09-02T16:14:04;25.90;;;24.60;;
33644;SDS011;19986;48.190;16.366;2022-09-02T16:16:30;26.77;;;25.40;;
33644;SDS011;19986;48.190;16.366;2022-09-02T16:18:57;24.50;;;23.33;;
33644;SDS011;19986;48.190;16.366;2022-09-02T16:21:23;27.33;;;25.63;;
33644;SDS011;19986;48.190;16.366;2022-09-02T16:23:49;25.70;;;24.17;;
33644;SDS011;19986;48.190;16.366;2022-09-02T16:26:25;26.50;;;25.17;;
33644;SDS011;19986;48.190;16.366;2022-09-02T16:28:53;27.73;;;25.88;;
33644;SDS011;19986;48.190;16.366;2022-09-02T16:31:24;28.55;;;26.40;;
33644;SDS011;19986;48.190;16.366;2022-09-02T16:36:27;26.25;;;24.45;;